This is the latest recevied weather packets stored in our database for station/object EA1BQO-1. If no packets are shown the sender has not sent any weather packets the latest 10 day(s).
| Time | Temp. | Humidity | Pressure | Rain* | Wind** | Luminosity | Snow |
|---|---|---|---|---|---|---|---|
| 1777949033 | 6.67° C | 99% | 1011.1 hPa | 0 mm | - | - | - |
| 1777948433 | 6.67° C | 99% | 1011.2 hPa | 0 mm | - | - | - |
| 1777947833 | 6.11° C | 99% | 1011.1 hPa | 0 mm | - | - | - |
| 1777947233 | 6.11° C | 99% | 1011.1 hPa | 0 mm | - | - | - |
| 1777946633 | 6.11° C | 99% | 1011 hPa | 0 mm | - | - | - |
| 1777946033 | 6.11° C | 97% | 1011.2 hPa | 0 mm | - | - | - |
| 1777945433 | 6.11° C | 98% | 1011.3 hPa | 0 mm | - | - | - |
| 1777944833 | 6.11° C | 98% | 1011.2 hPa | 0 mm | - | - | - |
| 1777944233 | 6.11° C | 98% | 1011.2 hPa | 0 mm | - | - | - |
| 1777943633 | 6.67° C | 97% | 1011.3 hPa | 0 mm | - | - | - |
| 1777943033 | 6.67° C | 98% | 1011.3 hPa | 0 mm | - | - | - |
| 1777942433 | 6.67° C | 98% | 1011.3 hPa | 0 mm | - | - | - |
| 1777941833 | 6.67° C | 98% | 1011.3 hPa | 0 mm | - | - | - |
| 1777941233 | 7.22° C | 97% | 1011.5 hPa | 0 mm | - | - | - |
| 1777940633 | 7.22° C | 96% | 1011.4 hPa | 0 mm | - | - | - |
| 1777940033 | 7.22° C | 95% | 1011.5 hPa | 0 mm | - | - | - |
| 1777939433 | 7.78° C | 94% | 1011.6 hPa | 0 mm | - | - | - |
| 1777938833 | 7.78° C | 93% | 1011.7 hPa | 0 mm | - | - | - |
| 1777938233 | 7.78° C | 92% | 1011.7 hPa | 0 mm | - | - | - |
| 1777937633 | 7.78° C | 91% | 1011.8 hPa | 0 mm | - | - | - |
| 1777937033 | 7.78° C | 89% | 1011.8 hPa | 0 mm | - | - | - |
| 1777936433 | 7.78° C | 88% | 1011.7 hPa | 0 mm | - | - | - |
| 1777935833 | 8.33° C | 89% | 1012 hPa | 0 mm | - | - | - |
| 1777935233 | 8.33° C | 90% | 1011.9 hPa | 0 mm | - | - | - |
| 1777934633 | 7.78° C | 91% | 1011.9 hPa | 0 mm | - | - | - |
* Rain latest hour (hover to see other rain measurements)
** Current wind speed in m/s (hover to see current wind gust speed)